sensor_id;sensor_type;location;lat;lon;timestamp;temperature;humidity
5200;DHT22;2619;47.868;11.892;2023-09-12T00:00:52;15.70;99.90
5200;DHT22;2619;47.868;11.892;2023-09-12T00:03:21;15.70;99.90
5200;DHT22;2619;47.868;11.892;2023-09-12T00:05:54;15.70;99.90
5200;DHT22;2619;47.868;11.892;2023-09-12T00:08:20;15.70;99.90
5200;DHT22;2619;47.868;11.892;2023-09-12T00:10:46;15.70;99.90
5200;DHT22;2619;47.868;11.892;2023-09-12T00:13:12;15.70;99.90
5200;DHT22;2619;47.868;11.892;2023-09-12T00:15:37;15.60;99.90
5200;DHT22;2619;47.868;11.892;2023-09-12T00:18:03;15.60;99.90
5200;DHT22;2619;47.868;11.892;2023-09-12T00:20:29;15.50;99.90
5200;DHT22;2619;47.868;11.892;2023-09-12T00:22:55;15.50;99.90
5200;DHT22;2619;47.868;11.892;2023-09-12T00:25:21;15.50;99.90
5200;DHT22;2619;47.868;11.892;2023-09-12T00:27:47;15.50;99.90
5200;DHT22;2619;47.868;11.892;2023-09-12T00:30:14;15.50;99.90
5200;DHT22;2619;47.868;11.892;2023-09-12T00:32:41;15.50;99.90
5200;DHT22;2619;47.868;11.892;2023-09-12T00:35:06;15.40;99.90
5200;DHT22;2619;47.868;11.892;2023-09-12T00:37:32;15.40;99.90
5200;DHT22;2619;47.868;11.892;2023-09-12T00:39:58;15.40;99.90
5200;DHT22;2619;47.868;11.892;2023-09-12T00:42:27;15.40;99.90
5200;DHT22;2619;47.868;11.892;2023-09-12T00:44:52;15.50;99.90
5200;DHT22;2619;47.868;11.892;2023-09-12T00:47:19;15.50;99.90
5200;DHT22;2619;47.868;11.892;2023-09-12T00:49:45;15.40;99.90
5200;DHT22;2619;47.868;11.892;2023-09-12T00:52:12;15.30;99.90
5200;DHT22;2619;47.868;11.892;2023-09-12T00:54:39;15.30;99.90
5200;DHT22;2619;47.868;11.892;2023-09-12T00:57:05;15.30;99.90
5200;DHT22;2619;47.868;11.892;2023-09-12T00:59:31;15.30;99.90
5200;DHT22;2619;47.868;11.892;2023-09-12T01:01:58;15.30;99.90
5200;DHT22;2619;47.868;11.892;2023-09-12T01:04:23;15.30;99.90
5200;DHT22;2619;47.868;11.892;2023-09-12T01:06:49;15.30;99.90
5200;DHT22;2619;47.868;11.892;2023-09-12T01:09:15;15.30;99.90
5200;DHT22;2619;47.868;11.892;2023-09-12T01:11:41;15.40;99.90
5200;DHT22;2619;47.868;11.892;2023-09-12T01:14:07;15.30;99.90
5200;DHT22;2619;47.868;11.892;2023-09-12T01:16:32;15.20;99.90
5200;DHT22;2619;47.868;11.892;2023-09-12T01:18:58;15.20;99.90
5200;DHT22;2619;47.868;11.892;2023-09-12T01:21:51;15.10;99.90
5200;DHT22;2619;47.868;11.892;2023-09-12T01:29:37;15.10;99.90
5200;DHT22;2619;47.868;11.892;2023-09-12T01:32:04;15.10;99.90
5200;DHT22;2619;47.868;11.892;2023-09-12T01:34:30;15.10;99.90
5200;DHT22;2619;47.868;11.892;2023-09-12T01:36:55;15.10;99.90
5200;DHT22;2619;47.868;11.892;2023-09-12T01:39:21;15.10;99.90
5200;DHT22;2619;47.868;11.892;2023-09-12T01:41:48;15.10;99.90
5200;DHT22;2619;47.868;11.892;2023-09-12T01:44:15;15.10;99.90
5200;DHT22;2619;47.868;11.892;2023-09-12T01:46:43;15.10;99.90
5200;DHT22;2619;47.868;11.892;2023-09-12T01:49:10;15.10;99.90
5200;DHT22;2619;47.868;11.892;2023-09-12T01:51:36;15.10;99.90
5200;DHT22;2619;47.868;11.892;2023-09-12T01:54:03;15.00;99.90
5200;DHT22;2619;47.868;11.892;2023-09-12T01:56:30;15.00;99.90
5200;DHT22;2619;47.868;11.892;2023-09-12T01:58:56;14.90;99.90
5200;DHT22;2619;47.868;11.892;2023-09-12T02:01:22;15.00;99.90
5200;DHT22;2619;47.868;11.892;2023-09-12T02:03:47;15.00;99.90
5200;DHT22;2619;47.868;11.892;2023-09-12T02:06:13;14.90;99.90
5200;DHT22;2619;47.868;11.892;2023-09-12T02:08:38;14.80;99.90
5200;DHT22;2619;47.868;11.892;2023-09-12T02:11:04;14.70;99.90
5200;DHT22;2619;47.868;11.892;2023-09-12T02:13:29;14.60;99.90
5200;DHT22;2619;47.868;11.892;2023-09-12T02:16:01;14.60;99.90
5200;DHT22;2619;47.868;11.892;2023-09-12T02:18:28;14.60;99.90
5200;DHT22;2619;47.868;11.892;2023-09-12T02:20:54;14.60;99.90
5200;DHT22;2619;47.868;11.892;2023-09-12T02:23:20;14.60;99.90
5200;DHT22;2619;47.868;11.892;2023-09-12T02:25:45;14.50;99.90
5200;DHT22;2619;47.868;11.892;2023-09-12T02:28:11;14.50;99.90
5200;DHT22;2619;47.868;11.892;2023-09-12T02:30:40;14.50;99.90
5200;DHT22;2619;47.868;11.892;2023-09-12T02:33:06;14.50;99.90
5200;DHT22;2619;47.868;11.892;2023-09-12T02:35:31;14.40;99.90
5200;DHT22;2619;47.868;11.892;2023-09-12T02:37:57;14.40;99.90
5200;DHT22;2619;47.868;11.892;2023-09-12T02:40:22;14.50;99.90
5200;DHT22;2619;47.868;11.892;2023-09-12T02:42:48;14.50;99.90
5200;DHT22;2619;47.868;11.892;2023-09-12T02:45:13;14.50;99.90
5200;DHT22;2619;47.868;11.892;2023-09-12T02:47:39;14.50;99.90
5200;DHT22;2619;47.868;11.892;2023-09-12T02:50:05;14.60;99.90
5200;DHT22;2619;47.868;11.892;2023-09-12T02:52:31;14.60;99.90
5200;DHT22;2619;47.868;11.892;2023-09-12T02:54:57;14.50;99.90
5200;DHT22;2619;47.868;11.892;2023-09-12T02:57:22;14.50;99.90
5200;DHT22;2619;47.868;11.892;2023-09-12T02:59:48;14.50;99.90
5200;DHT22;2619;47.868;11.892;2023-09-12T03:02:13;14.40;99.90
5200;DHT22;2619;47.868;11.892;2023-09-12T03:04:39;14.40;99.90
5200;DHT22;2619;47.868;11.892;2023-09-12T03:07:05;14.40;99.90
5200;DHT22;2619;47.868;11.892;2023-09-12T03:09:30;14.40;99.90
5200;DHT22;2619;47.868;11.892;2023-09-12T03:11:56;14.30;99.90
5200;DHT22;2619;47.868;11.892;2023-09-12T03:14:21;14.40;99.90
5200;DHT22;2619;47.868;11.892;2023-09-12T03:16:47;14.40;99.90
5200;DHT22;2619;47.868;11.892;2023-09-12T03:19:12;14.30;99.90
5200;DHT22;2619;47.868;11.892;2023-09-12T03:21:38;14.30;99.90
5200;DHT22;2619;47.868;11.892;2023-09-12T03:24:04;14.20;99.90
5200;DHT22;2619;47.868;11.892;2023-09-12T03:26:30;14.20;99.90
5200;DHT22;2619;47.868;11.892;2023-09-12T03:28:55;14.20;99.90
5200;DHT22;2619;47.868;11.892;2023-09-12T03:31:21;14.10;99.90
5200;DHT22;2619;47.868;11.892;2023-09-12T03:33:47;14.20;99.90
5200;DHT22;2619;47.868;11.892;2023-09-12T03:36:15;14.20;99.90
5200;DHT22;2619;47.868;11.892;2023-09-12T03:38:41;14.20;99.90
5200;DHT22;2619;47.868;11.892;2023-09-12T03:41:07;14.20;99.90
5200;DHT22;2619;47.868;11.892;2023-09-12T03:43:33;14.20;99.90
5200;DHT22;2619;47.868;11.892;2023-09-12T03:45:59;14.10;99.90
5200;DHT22;2619;47.868;11.892;2023-09-12T03:48:25;14.10;99.90
5200;DHT22;2619;47.868;11.892;2023-09-12T03:50:50;14.10;99.90
5200;DHT22;2619;47.868;11.892;2023-09-12T03:53:16;14.10;99.90
5200;DHT22;2619;47.868;11.892;2023-09-12T03:55:42;14.00;99.90
5200;DHT22;2619;47.868;11.892;2023-09-12T03:58:08;14.00;99.90
5200;DHT22;2619;47.868;11.892;2023-09-12T04:00:34;14.00;99.90
5200;DHT22;2619;47.868;11.892;2023-09-12T04:02:59;13.90;99.90
5200;DHT22;2619;47.868;11.892;2023-09-12T04:05:26;13.80;99.90
5200;DHT22;2619;47.868;11.892;2023-09-12T04:07:52;13.80;99.90
5200;DHT22;2619;47.868;11.892;2023-09-12T04:10:19;13.80;99.90
5200;DHT22;2619;47.868;11.892;2023-09-12T04:12:45;13.80;99.90
5200;DHT22;2619;47.868;11.892;2023-09-12T04:15:10;13.80;99.90
5200;DHT22;2619;47.868;11.892;2023-09-12T04:17:36;13.70;99.90
5200;DHT22;2619;47.868;11.892;2023-09-12T04:20:01;13.70;99.90
5200;DHT22;2619;47.868;11.892;2023-09-12T04:22:27;13.70;99.90
5200;DHT22;2619;47.868;11.892;2023-09-12T04:24:54;13.60;99.90
5200;DHT22;2619;47.868;11.892;2023-09-12T04:27:19;13.70;99.90
5200;DHT22;2619;47.868;11.892;2023-09-12T04:29:45;13.60;99.90
5200;DHT22;2619;47.868;11.892;2023-09-12T04:32:11;13.60;99.90
5200;DHT22;2619;47.868;11.892;2023-09-12T04:34:37;13.60;99.90
5200;DHT22;2619;47.868;11.892;2023-09-12T04:37:02;13.70;99.90
5200;DHT22;2619;47.868;11.892;2023-09-12T04:39:28;13.70;99.90
5200;DHT22;2619;47.868;11.892;2023-09-12T04:41:55;13.70;99.90
5200;DHT22;2619;47.868;11.892;2023-09-12T04:44:20;13.70;99.90
5200;DHT22;2619;47.868;11.892;2023-09-12T04:46:46;13.80;99.90
5200;DHT22;2619;47.868;11.892;2023-09-12T04:49:12;13.80;99.90
5200;DHT22;2619;47.868;11.892;2023-09-12T04:51:37;13.70;99.90
5200;DHT22;2619;47.868;11.892;2023-09-12T04:54:03;13.80;99.90
5200;DHT22;2619;47.868;11.892;2023-09-12T04:56:29;13.90;99.90
5200;DHT22;2619;47.868;11.892;2023-09-12T04:58:54;14.00;99.90
5200;DHT22;2619;47.868;11.892;2023-09-12T05:01:20;14.10;99.90
5200;DHT22;2619;47.868;11.892;2023-09-12T05:03:45;14.00;99.90
5200;DHT22;2619;47.868;11.892;2023-09-12T05:06:12;14.10;99.90
5200;DHT22;2619;47.868;11.892;2023-09-12T05:08:51;14.10;99.90
5200;DHT22;2619;47.868;11.892;2023-09-12T05:11:17;14.10;99.90
5200;DHT22;2619;47.868;11.892;2023-09-12T05:13:42;14.20;99.90
5200;DHT22;2619;47.868;11.892;2023-09-12T05:16:08;14.20;99.90
5200;DHT22;2619;47.868;11.892;2023-09-12T05:18:34;14.20;99.90
5200;DHT22;2619;47.868;11.892;2023-09-12T05:20:59;14.30;99.90
5200;DHT22;2619;47.868;11.892;2023-09-12T05:23:25;14.30;99.90
5200;DHT22;2619;47.868;11.892;2023-09-12T05:25:50;14.30;99.90
5200;DHT22;2619;47.868;11.892;2023-09-12T05:28:16;14.40;99.90
5200;DHT22;2619;47.868;11.892;2023-09-12T05:30:42;14.60;99.90
5200;DHT22;2619;47.868;11.892;2023-09-12T05:33:08;14.70;99.90
5200;DHT22;2619;47.868;11.892;2023-09-12T05:35:34;14.90;99.90
5200;DHT22;2619;47.868;11.892;2023-09-12T05:37:59;15.10;99.90
5200;DHT22;2619;47.868;11.892;2023-09-12T05:40:25;15.40;99.90
5200;DHT22;2619;47.868;11.892;2023-09-12T05:42:50;15.60;99.90
5200;DHT22;2619;47.868;11.892;2023-09-12T05:45:16;15.80;99.90
5200;DHT22;2619;47.868;11.892;2023-09-12T05:47:41;15.90;99.90
5200;DHT22;2619;47.868;11.892;2023-09-12T05:50:07;16.00;99.90
5200;DHT22;2619;47.868;11.892;2023-09-12T05:52:33;16.20;99.90
5200;DHT22;2619;47.868;11.892;2023-09-12T05:54:59;16.60;99.90
5200;DHT22;2619;47.868;11.892;2023-09-12T05:57:25;16.90;99.90
5200;DHT22;2619;47.868;11.892;2023-09-12T05:59:50;17.40;99.90
5200;DHT22;2619;47.868;11.892;2023-09-12T06:02:16;17.80;99.90
5200;DHT22;2619;47.868;11.892;2023-09-12T06:04:43;18.20;99.90
5200;DHT22;2619;47.868;11.892;2023-09-12T06:07:09;18.60;99.90
5200;DHT22;2619;47.868;11.892;2023-09-12T06:09:34;19.10;99.90
5200;DHT22;2619;47.868;11.892;2023-09-12T06:12:01;19.40;99.90
5200;DHT22;2619;47.868;11.892;2023-09-12T06:14:27;19.80;99.90
5200;DHT22;2619;47.868;11.892;2023-09-12T06:16:52;20.10;99.90
5200;DHT22;2619;47.868;11.892;2023-09-12T06:19:19;20.30;99.90
5200;DHT22;2619;47.868;11.892;2023-09-12T06:21:45;20.40;99.90
5200;DHT22;2619;47.868;11.892;2023-09-12T06:24:16;20.40;99.90
5200;DHT22;2619;47.868;11.892;2023-09-12T06:26:42;20.30;99.90
5200;DHT22;2619;47.868;11.892;2023-09-12T06:29:07;20.40;99.90
5200;DHT22;2619;47.868;11.892;2023-09-12T06:31:34;20.40;99.90
5200;DHT22;2619;47.868;11.892;2023-09-12T06:34:00;20.30;99.90
5200;DHT22;2619;47.868;11.892;2023-09-12T06:36:26;20.20;99.90
5200;DHT22;2619;47.868;11.892;2023-09-12T06:38:57;20.20;99.90
5200;DHT22;2619;47.868;11.892;2023-09-12T06:41:23;20.10;99.90
5200;DHT22;2619;47.868;11.892;2023-09-12T06:43:49;20.00;99.90
5200;DHT22;2619;47.868;11.892;2023-09-12T06:46:15;20.00;99.90
5200;DHT22;2619;47.868;11.892;2023-09-12T06:48:46;20.00;99.90
5200;DHT22;2619;47.868;11.892;2023-09-12T06:51:12;20.00;99.90
5200;DHT22;2619;47.868;11.892;2023-09-12T06:53:38;20.10;99.90
5200;DHT22;2619;47.868;11.892;2023-09-12T06:56:07;20.20;99.90
5200;DHT22;2619;47.868;11.892;2023-09-12T06:58:32;20.30;99.90
5200;DHT22;2619;47.868;11.892;2023-09-12T07:01:07;20.50;99.90
5200;DHT22;2619;47.868;11.892;2023-09-12T07:03:34;20.60;99.90
5200;DHT22;2619;47.868;11.892;2023-09-12T07:06:00;20.60;99.90
5200;DHT22;2619;47.868;11.892;2023-09-12T07:08:26;20.70;99.90
5200;DHT22;2619;47.868;11.892;2023-09-12T07:10:52;20.80;99.90
5200;DHT22;2619;47.868;11.892;2023-09-12T07:13:22;20.90;99.90
5200;DHT22;2619;47.868;11.892;2023-09-12T07:15:49;20.90;99.90
5200;DHT22;2619;47.868;11.892;2023-09-12T07:18:14;21.00;99.90
5200;DHT22;2619;47.868;11.892;2023-09-12T07:20:40;21.10;99.90
5200;DHT22;2619;47.868;11.892;2023-09-12T07:23:06;21.20;99.90
5200;DHT22;2619;47.868;11.892;2023-09-12T07:25:39;21.30;99.90
5200;DHT22;2619;47.868;11.892;2023-09-12T07:28:08;21.40;99.90
5200;DHT22;2619;47.868;11.892;2023-09-12T07:30:34;21.50;99.90
5200;DHT22;2619;47.868;11.892;2023-09-12T07:33:00;21.60;99.90
5200;DHT22;2619;47.868;11.892;2023-09-12T07:35:25;21.60;99.90
5200;DHT22;2619;47.868;11.892;2023-09-12T07:37:51;21.80;99.90
5200;DHT22;2619;47.868;11.892;2023-09-12T07:40:17;21.90;99.90
5200;DHT22;2619;47.868;11.892;2023-09-12T07:42:43;22.10;99.90
5200;DHT22;2619;47.868;11.892;2023-09-12T07:45:09;22.20;99.90
5200;DHT22;2619;47.868;11.892;2023-09-12T07:47:34;22.30;99.90
5200;DHT22;2619;47.868;11.892;2023-09-12T07:50:00;22.50;99.90
5200;DHT22;2619;47.868;11.892;2023-09-12T07:52:26;22.70;99.90
5200;DHT22;2619;47.868;11.892;2023-09-12T07:54:52;22.90;99.90
5200;DHT22;2619;47.868;11.892;2023-09-12T07:57:22;23.00;99.90
5200;DHT22;2619;47.868;11.892;2023-09-12T07:59:48;23.20;99.90
5200;DHT22;2619;47.868;11.892;2023-09-12T08:02:14;23.30;99.90
5200;DHT22;2619;47.868;11.892;2023-09-12T08:04:39;23.50;99.90
5200;DHT22;2619;47.868;11.892;2023-09-12T08:07:05;23.60;99.90
5200;DHT22;2619;47.868;11.892;2023-09-12T08:09:51;23.70;99.90
5200;DHT22;2619;47.868;11.892;2023-09-12T08:12:18;23.80;99.90
5200;DHT22;2619;47.868;11.892;2023-09-12T08:14:44;23.90;99.90
5200;DHT22;2619;47.868;11.892;2023-09-12T08:17:11;24.00;99.90
5200;DHT22;2619;47.868;11.892;2023-09-12T08:19:36;24.10;99.90
5200;DHT22;2619;47.868;11.892;2023-09-12T08:22:02;24.30;99.90
5200;DHT22;2619;47.868;11.892;2023-09-12T08:24:27;24.50;99.90
5200;DHT22;2619;47.868;11.892;2023-09-12T08:26:53;24.70;99.90
5200;DHT22;2619;47.868;11.892;2023-09-12T08:29:20;24.60;99.90
5200;DHT22;2619;47.868;11.892;2023-09-12T08:31:46;24.70;99.90
5200;DHT22;2619;47.868;11.892;2023-09-12T08:34:12;24.90;99.90
5200;DHT22;2619;47.868;11.892;2023-09-12T08:36:38;24.90;99.90
5200;DHT22;2619;47.868;11.892;2023-09-12T08:39:03;25.00;99.90
5200;DHT22;2619;47.868;11.892;2023-09-12T08:41:30;25.20;99.90
5200;DHT22;2619;47.868;11.892;2023-09-12T08:43:56;25.30;99.90
5200;DHT22;2619;47.868;11.892;2023-09-12T08:46:22;25.30;99.90
5200;DHT22;2619;47.868;11.892;2023-09-12T08:48:49;25.30;99.90
5200;DHT22;2619;47.868;11.892;2023-09-12T08:51:15;25.40;99.90
5200;DHT22;2619;47.868;11.892;2023-09-12T08:53:41;25.40;99.90
5200;DHT22;2619;47.868;11.892;2023-09-12T08:56:07;25.50;99.90
5200;DHT22;2619;47.868;11.892;2023-09-12T08:58:35;25.60;99.90
5200;DHT22;2619;47.868;11.892;2023-09-12T09:01:02;25.80;99.90
5200;DHT22;2619;47.868;11.892;2023-09-12T09:03:29;25.90;99.90
5200;DHT22;2619;47.868;11.892;2023-09-12T09:05:55;26.00;99.90
5200;DHT22;2619;47.868;11.892;2023-09-12T09:08:23;26.10;99.90
5200;DHT22;2619;47.868;11.892;2023-09-12T09:10:59;26.10;99.90
5200;DHT22;2619;47.868;11.892;2023-09-12T09:13:27;26.20;99.90
5200;DHT22;2619;47.868;11.892;2023-09-12T09:19:09;26.50;99.90
5200;DHT22;2619;47.868;11.892;2023-09-12T09:21:37;26.60;99.90
5200;DHT22;2619;47.868;11.892;2023-09-12T09:24:08;26.70;99.90
5200;DHT22;2619;47.868;11.892;2023-09-12T09:29:09;26.80;99.90
5200;DHT22;2619;47.868;11.892;2023-09-12T09:31:36;26.80;99.90
5200;DHT22;2619;47.868;11.892;2023-09-12T09:34:10;26.70;99.90
5200;DHT22;2619;47.868;11.892;2023-09-12T09:36:40;26.80;99.90
5200;DHT22;2619;47.868;11.892;2023-09-12T09:39:05;26.90;99.90
5200;DHT22;2619;47.868;11.892;2023-09-12T09:41:31;27.10;99.90
5200;DHT22;2619;47.868;11.892;2023-09-12T09:43:58;27.20;99.90
5200;DHT22;2619;47.868;11.892;2023-09-12T09:46:25;27.20;99.90
5200;DHT22;2619;47.868;11.892;2023-09-12T09:48:51;27.30;99.90
5200;DHT22;2619;47.868;11.892;2023-09-12T09:51:18;27.20;99.90
5200;DHT22;2619;47.868;11.892;2023-09-12T09:53:44;27.30;99.90
5200;DHT22;2619;47.868;11.892;2023-09-12T09:56:16;27.50;99.90
5200;DHT22;2619;47.868;11.892;2023-09-12T09:58:53;27.70;99.90
5200;DHT22;2619;47.868;11.892;2023-09-12T10:01:20;27.60;99.90
5200;DHT22;2619;47.868;11.892;2023-09-12T10:03:47;27.60;99.90
5200;DHT22;2619;47.868;11.892;2023-09-12T10:06:18;27.80;99.90
5200;DHT22;2619;47.868;11.892;2023-09-12T10:08:45;27.80;99.90
5200;DHT22;2619;47.868;11.892;2023-09-12T10:11:15;27.60;99.90
5200;DHT22;2619;47.868;11.892;2023-09-12T10:13:58;27.40;99.90
5200;DHT22;2619;47.868;11.892;2023-09-12T10:18:59;27.80;99.90
5200;DHT22;2619;47.868;11.892;2023-09-12T10:21:31;28.00;99.90
5200;DHT22;2619;47.868;11.892;2023-09-12T10:23:58;28.10;99.90
5200;DHT22;2619;47.868;11.892;2023-09-12T10:26:25;28.00;99.90
5200;DHT22;2619;47.868;11.892;2023-09-12T10:28:51;28.20;99.90
5200;DHT22;2619;47.868;11.892;2023-09-12T10:31:17;28.30;99.90
5200;DHT22;2619;47.868;11.892;2023-09-12T10:33:44;28.30;99.90
5200;DHT22;2619;47.868;11.892;2023-09-12T10:36:12;28.40;99.90
5200;DHT22;2619;47.868;11.892;2023-09-12T10:38:42;28.50;99.90
5200;DHT22;2619;47.868;11.892;2023-09-12T10:41:12;28.60;99.90
5200;DHT22;2619;47.868;11.892;2023-09-12T10:43:42;28.60;99.90
5200;DHT22;2619;47.868;11.892;2023-09-12T10:46:08;28.60;99.90
5200;DHT22;2619;47.868;11.892;2023-09-12T10:48:37;28.70;99.90
5200;DHT22;2619;47.868;11.892;2023-09-12T10:51:07;28.50;99.90
5200;DHT22;2619;47.868;11.892;2023-09-12T10:53:33;28.60;99.90
5200;DHT22;2619;47.868;11.892;2023-09-12T10:56:19;28.70;99.90
5200;DHT22;2619;47.868;11.892;2023-09-12T11:01:42;28.80;99.90
5200;DHT22;2619;47.868;11.892;2023-09-12T11:06:47;29.00;99.90
5200;DHT22;2619;47.868;11.892;2023-09-12T11:09:22;29.20;99.90
5200;DHT22;2619;47.868;11.892;2023-09-12T11:11:56;29.50;99.90
5200;DHT22;2619;47.868;11.892;2023-09-12T11:14:22;29.70;99.90
5200;DHT22;2619;47.868;11.892;2023-09-12T11:19:48;30.00;99.90
5200;DHT22;2619;47.868;11.892;2023-09-12T11:24:47;30.40;99.90
5200;DHT22;2619;47.868;11.892;2023-09-12T11:27:13;30.60;99.90
5200;DHT22;2619;47.868;11.892;2023-09-12T11:29:39;30.30;99.90
5200;DHT22;2619;47.868;11.892;2023-09-12T11:32:07;30.40;99.90
5200;DHT22;2619;47.868;11.892;2023-09-12T11:34:52;30.30;99.90
5200;DHT22;2619;47.868;11.892;2023-09-12T11:37:25;30.30;99.90
5200;DHT22;2619;47.868;11.892;2023-09-12T11:39:51;30.40;99.90
5200;DHT22;2619;47.868;11.892;2023-09-12T11:42:18;30.40;99.90
5200;DHT22;2619;47.868;11.892;2023-09-12T11:44:44;30.20;99.90
5200;DHT22;2619;47.868;11.892;2023-09-12T11:47:12;30.40;99.90
5200;DHT22;2619;47.868;11.892;2023-09-12T11:49:39;30.40;99.90
5200;DHT22;2619;47.868;11.892;2023-09-12T11:52:13;30.20;99.90
5200;DHT22;2619;47.868;11.892;2023-09-12T11:54:40;30.40;99.90
5200;DHT22;2619;47.868;11.892;2023-09-12T11:57:10;30.70;99.90
5200;DHT22;2619;47.868;11.892;2023-09-12T11:59:42;30.90;99.90
5200;DHT22;2619;47.868;11.892;2023-09-12T12:02:10;31.20;99.90
5200;DHT22;2619;47.868;11.892;2023-09-12T12:04:37;31.40;99.90
5200;DHT22;2619;47.868;11.892;2023-09-12T12:07:03;31.40;99.90
5200;DHT22;2619;47.868;11.892;2023-09-12T12:09:29;31.50;99.90
5200;DHT22;2619;47.868;11.892;2023-09-12T12:11:55;31.20;99.90
5200;DHT22;2619;47.868;11.892;2023-09-12T12:14:25;31.20;99.90
5200;DHT22;2619;47.868;11.892;2023-09-12T12:16:52;30.50;99.90
5200;DHT22;2619;47.868;11.892;2023-09-12T12:19:18;30.30;99.90
5200;DHT22;2619;47.868;11.892;2023-09-12T12:21:45;30.10;99.90
5200;DHT22;2619;47.868;11.892;2023-09-12T12:24:14;30.00;99.90
5200;DHT22;2619;47.868;11.892;2023-09-12T12:26:41;29.80;99.90
5200;DHT22;2619;47.868;11.892;2023-09-12T12:29:09;30.00;99.90
5200;DHT22;2619;47.868;11.892;2023-09-12T12:31:36;30.10;99.90
5200;DHT22;2619;47.868;11.892;2023-09-12T12:34:01;30.30;99.90
5200;DHT22;2619;47.868;11.892;2023-09-12T12:36:28;30.40;99.90
5200;DHT22;2619;47.868;11.892;2023-09-12T12:38:54;30.30;99.90
5200;DHT22;2619;47.868;11.892;2023-09-12T12:41:25;30.30;99.90
5200;DHT22;2619;47.868;11.892;2023-09-12T12:43:52;30.10;99.90
5200;DHT22;2619;47.868;11.892;2023-09-12T12:46:18;30.20;99.90
5200;DHT22;2619;47.868;11.892;2023-09-12T12:48:47;30.00;99.90
5200;DHT22;2619;47.868;11.892;2023-09-12T12:51:15;30.20;99.90
5200;DHT22;2619;47.868;11.892;2023-09-12T12:53:46;30.40;99.90
5200;DHT22;2619;47.868;11.892;2023-09-12T12:56:17;30.40;99.90
5200;DHT22;2619;47.868;11.892;2023-09-12T12:58:55;30.20;99.90
5200;DHT22;2619;47.868;11.892;2023-09-12T13:01:22;30.10;99.90
5200;DHT22;2619;47.868;11.892;2023-09-12T13:03:48;30.10;99.90
5200;DHT22;2619;47.868;11.892;2023-09-12T13:06:18;29.80;99.90
5200;DHT22;2619;47.868;11.892;2023-09-12T13:08:45;29.90;99.90
5200;DHT22;2619;47.868;11.892;2023-09-12T13:11:13;30.10;99.90
5200;DHT22;2619;47.868;11.892;2023-09-12T13:13:40;30.20;99.90
5200;DHT22;2619;47.868;11.892;2023-09-12T13:16:07;30.10;99.90
5200;DHT22;2619;47.868;11.892;2023-09-12T13:18:38;29.90;99.90
5200;DHT22;2619;47.868;11.892;2023-09-12T13:21:04;29.80;99.90
5200;DHT22;2619;47.868;11.892;2023-09-12T13:23:30;29.60;99.90
5200;DHT22;2619;47.868;11.892;2023-09-12T13:25:56;29.50;99.90
5200;DHT22;2619;47.868;11.892;2023-09-12T13:28:22;29.60;99.90
5200;DHT22;2619;47.868;11.892;2023-09-12T13:30:54;29.50;99.90
5200;DHT22;2619;47.868;11.892;2023-09-12T13:33:20;29.50;99.90
5200;DHT22;2619;47.868;11.892;2023-09-12T13:35:49;29.30;99.90
5200;DHT22;2619;47.868;11.892;2023-09-12T13:38:16;29.30;99.90
5200;DHT22;2619;47.868;11.892;2023-09-12T13:40:44;29.40;99.90
5200;DHT22;2619;47.868;11.892;2023-09-12T13:43:10;29.30;99.90
5200;DHT22;2619;47.868;11.892;2023-09-12T13:45:36;29.10;99.90
5200;DHT22;2619;47.868;11.892;2023-09-12T13:48:02;29.00;99.90
5200;DHT22;2619;47.868;11.892;2023-09-12T13:50:29;29.00;99.90
5200;DHT22;2619;47.868;11.892;2023-09-12T13:52:59;29.00;99.90
5200;DHT22;2619;47.868;11.892;2023-09-12T13:55:34;29.00;99.90
5200;DHT22;2619;47.868;11.892;2023-09-12T13:58:02;28.60;99.90
5200;DHT22;2619;47.868;11.892;2023-09-12T14:00:28;28.60;99.90
5200;DHT22;2619;47.868;11.892;2023-09-12T14:02:53;28.80;99.90
5200;DHT22;2619;47.868;11.892;2023-09-12T14:05:19;28.80;99.90
5200;DHT22;2619;47.868;11.892;2023-09-12T14:07:44;28.80;99.90
5200;DHT22;2619;47.868;11.892;2023-09-12T14:10:10;28.90;99.90
5200;DHT22;2619;47.868;11.892;2023-09-12T14:12:35;28.90;99.90
5200;DHT22;2619;47.868;11.892;2023-09-12T14:15:01;28.90;99.90
5200;DHT22;2619;47.868;11.892;2023-09-12T14:17:28;28.90;99.90
5200;DHT22;2619;47.868;11.892;2023-09-12T14:19:55;28.80;99.90
5200;DHT22;2619;47.868;11.892;2023-09-12T14:22:20;28.80;99.90
5200;DHT22;2619;47.868;11.892;2023-09-12T14:24:47;28.70;99.90
5200;DHT22;2619;47.868;11.892;2023-09-12T14:27:12;28.60;99.90
5200;DHT22;2619;47.868;11.892;2023-09-12T14:29:38;28.60;99.90
5200;DHT22;2619;47.868;11.892;2023-09-12T14:32:04;28.60;99.90
5200;DHT22;2619;47.868;11.892;2023-09-12T14:34:29;28.60;99.90
5200;DHT22;2619;47.868;11.892;2023-09-12T14:36:58;28.60;99.90
5200;DHT22;2619;47.868;11.892;2023-09-12T14:39:24;28.50;99.90
5200;DHT22;2619;47.868;11.892;2023-09-12T14:41:50;28.50;99.90
5200;DHT22;2619;47.868;11.892;2023-09-12T14:44:26;28.50;99.90
5200;DHT22;2619;47.868;11.892;2023-09-12T14:46:53;28.30;99.90
5200;DHT22;2619;47.868;11.892;2023-09-12T14:49:19;28.10;99.90
5200;DHT22;2619;47.868;11.892;2023-09-12T14:51:45;28.10;99.90
5200;DHT22;2619;47.868;11.892;2023-09-12T14:54:10;28.00;99.90
5200;DHT22;2619;47.868;11.892;2023-09-12T14:56:36;27.80;99.90
5200;DHT22;2619;47.868;11.892;2023-09-12T14:59:03;27.70;99.90
5200;DHT22;2619;47.868;11.892;2023-09-12T15:01:29;27.50;99.90
5200;DHT22;2619;47.868;11.892;2023-09-12T15:03:55;27.40;99.90
5200;DHT22;2619;47.868;11.892;2023-09-12T15:06:21;27.20;99.90
5200;DHT22;2619;47.868;11.892;2023-09-12T15:08:47;27.10;99.90
5200;DHT22;2619;47.868;11.892;2023-09-12T15:11:12;27.00;99.90
5200;DHT22;2619;47.868;11.892;2023-09-12T15:13:38;26.90;99.90
5200;DHT22;2619;47.868;11.892;2023-09-12T15:16:04;26.90;99.90
5200;DHT22;2619;47.868;11.892;2023-09-12T15:18:30;26.80;99.90
5200;DHT22;2619;47.868;11.892;2023-09-12T15:20:56;26.80;99.90
5200;DHT22;2619;47.868;11.892;2023-09-12T15:23:21;26.80;99.90
5200;DHT22;2619;47.868;11.892;2023-09-12T15:25:51;26.70;99.90
5200;DHT22;2619;47.868;11.892;2023-09-12T15:28:17;26.70;99.90
5200;DHT22;2619;47.868;11.892;2023-09-12T15:30:43;26.60;99.90
5200;DHT22;2619;47.868;11.892;2023-09-12T15:33:09;26.40;99.90
5200;DHT22;2619;47.868;11.892;2023-09-12T15:35:34;26.30;99.90
5200;DHT22;2619;47.868;11.892;2023-09-12T15:38:00;26.20;99.90
5200;DHT22;2619;47.868;11.892;2023-09-12T15:40:26;26.10;99.90
5200;DHT22;2619;47.868;11.892;2023-09-12T15:42:52;26.10;99.90
5200;DHT22;2619;47.868;11.892;2023-09-12T15:45:18;26.00;99.90
5200;DHT22;2619;47.868;11.892;2023-09-12T15:47:48;26.00;99.90
5200;DHT22;2619;47.868;11.892;2023-09-12T15:50:14;25.80;99.90
5200;DHT22;2619;47.868;11.892;2023-09-12T15:52:40;25.80;99.90
5200;DHT22;2619;47.868;11.892;2023-09-12T15:55:07;25.60;99.90
5200;DHT22;2619;47.868;11.892;2023-09-12T15:57:33;25.50;99.90
5200;DHT22;2619;47.868;11.892;2023-09-12T16:00:01;25.40;99.90
5200;DHT22;2619;47.868;11.892;2023-09-12T16:02:32;25.30;99.90
5200;DHT22;2619;47.868;11.892;2023-09-12T16:04:57;25.20;99.90
5200;DHT22;2619;47.868;11.892;2023-09-12T16:07:23;25.20;99.90